03:14
Airports
Links
Donate
Help keep this website running!
PayPal
Bitcoin
METAR
KBYG 180253Z AUTO 12006KT 10SM CLR 01/M07 A2949 RMK AO2 SLP011 T00111072 58035
Current Weather Conditions at KBYG
VFR 02:53:00 18-02-18
Automated station, no observer
Altimeter:29.49 hg
Temp:1.1°c 34°f
Dew point:-7.2°c 19°f
Wind:6 knots, 6.9 mph, 3 m/s, from 120°
Visibility:10.0 statute miles
(CLR) Clear
Past METAR reports
VFR 01:53:00 18-02-18
Automated station, no observer
Altimeter:29.54 hg
Temp:-1.1°c 30°f
Dew point:-6.1°c 21°f
Wind:11 knots, 12.7 mph, 6 m/s, from 330°
Visibility:10.0 statute miles
(CLR) Clear
KBYG 180153Z AUTO 33011KT 10SM CLR M01/M06 A2954 RMK AO2 SLP029 T10111061
VFR 00:53:00 18-02-18
Automated station, no observer
Altimeter:29.58 hg
Temp:-0.6°c 32°f
Dew point:-5.6°c 23°f
Wind:5 knots, 5.8 mph, 3 m/s, from 330°
Visibility:10.0 statute miles
(CLR) Clear
KBYG 180053Z AUTO 33005KT 10SM CLR M01/M06 A2958 RMK AO2 SLP042 T10061056
VFR 23:53:00 17-02-18
Automated station, no observer
Altimeter:29.61 hg
Temp:0.6°c 32°f
Dew point:-5.6°c 23°f
Wind:3 knots, 3.5 mph, 2 m/s,
Variable direction
Visibility:10.0 statute miles
(CLR) Clear
KBYG 172353Z AUTO VRB03KT 10SM CLR 01/M06 A2961 RMK AO2 SLP053 T00061056 10044 21028 56041
VFR 22:53:00 17-02-18
Automated station, no observer
Altimeter:29.65 hg
Temp:2.8°c 36°f
Dew point:-4.4°c 25°f
Wind:5 knots, 5.8 mph, 3 m/s, from 300°
Visibility:10.0 statute miles
(CLR) Clear
KBYG 172253Z AUTO 30005KT 10SM CLR 03/M04 A2965 RMK AO2 SLP062 T00281044
VFR 21:53:00 17-02-18
Automated station, no observer
Altimeter:29.69 hg
Temp:3.3°c 37°f
Dew point:-6.7°c 21°f
Wind:4 knots, 4.6 mph, 2 m/s, from 60°
Visibility:10.0 statute miles
9500(FEW) A few
KBYG 172153Z AUTO 06004KT 10SM FEW095 03/M07 A2969 RMK AO2 PRESFR SLP070 T00331067
TAF
No TAF for KBYG
Forecast at KBYG
No Forecast Reports for KBYG